Time;durP1;ratioP1;P1;durP2;ratioP2;P2;SDS_P1;SDS_P2;PMS_P1;PMS_P2;Temp;Humidity;BMP_temperature;BMP_pressure;BME280_temperature;BME280_humidity;BME280_pressure;Samples;Min_cycle;Max_cycle;Signal;HPM_P1;HPM_P2
2024/04/09 00:00:34;;;;;;;7.60;4.10;;;16.60;92.20;;;;;;5015083;28;20011;-80
2024/04/09 00:03:10;;;;;;;10.40;4.32;;;16.80;92.20;;;;;;4988896;28;20442;-80
2024/04/09 00:06:49;;;;;;;9.05;4.80;;;16.60;92.10;;;;;;5015133;28;20442;-80
2024/04/09 00:10:06;;;;;;;10.30;4.60;;;16.60;92.10;;;;;;4894859;29;19998;-80
2024/04/09 00:15:42;;;;;;;8.48;4.60;;;16.60;92.10;;;;;;4925095;29;20110;-80
2024/04/09 00:21:18;;;;;;;7.60;4.25;;;16.60;92.20;;;;;;4928335;29;20466;-80
2024/04/09 00:24:31;;;;;;;;;;;;;;;;;;;;;
2024/04/09 00:27:44;;;;;;;8.82;4.32;;;16.50;92.10;;;;;;5045778;28;20003;-80
2024/04/09 00:30:58;;;;;;;8.00;4.32;;;16.50;92.10;;;;;;5033891;28;20419;-80
2024/04/09 00:33:40;;;;;;;8.13;4.13;;;16.60;92.10;;;;;;5073578;28;20014;-81
2024/04/09 00:39:19;;;;;;;7.47;3.85;;;16.60;92.20;;;;;;5076355;28;19998;-81
2024/04/09 00:41:47;;;;;;;8.25;4.43;;;16.60;92.20;;;;;;5053719;28;20038;-80
2024/04/09 00:44:12;;;;;;;7.05;4.30;;;16.50;92.20;;;;;;5112958;27;20048;-79
2024/04/09 00:46:38;;;;;;;9.32;4.38;;;16.60;92.20;;;;;;5209126;27;20019;-80
2024/04/09 00:49:04;;;;;;;8.00;4.47;;;16.60;92.20;;;;;;5208809;27;20000;-79
2024/04/09 00:51:32;;;;;;;7.57;4.35;;;16.60;92.20;;;;;;5210399;27;20440;-82
2024/04/09 00:53:58;;;;;;;7.63;4.30;;;16.60;92.20;;;;;;5209332;27;20006;-79
2024/04/09 00:56:25;;;;;;;7.85;4.65;;;16.50;92.10;;;;;;5223571;27;20012;-79
2024/04/09 00:58:51;;;;;;;8.07;4.10;;;16.50;92.20;;;;;;5312874;27;20465;-78
2024/04/09 01:01:17;;;;;;;8.07;4.40;;;16.60;92.20;;;;;;5282548;27;20010;-79
2024/04/09 01:03:44;;;;;;;9.73;4.25;;;16.50;92.20;;;;;;5282569;27;20001;-79
2024/04/09 01:06:11;;;;;;;7.35;4.25;;;16.50;92.20;;;;;;5282816;27;20723;-79
2024/04/09 01:08:37;;;;;;;8.15;4.30;;;16.60;92.20;;;;;;5311959;27;20009;-79
2024/04/09 01:11:03;;;;;;;8.18;4.43;;;16.60;92.20;;;;;;5311876;27;20012;-79
2024/04/09 01:13:28;;;;;;;9.57;4.70;;;16.60;92.10;;;;;;5282569;27;19999;-81
2024/04/09 01:15:56;;;;;;;7.90;4.05;;;16.50;92.10;;;;;;5282647;27;20029;-79
2024/04/09 01:18:22;;;;;;;9.75;4.50;;;16.60;92.10;;;;;;5313346;27;20516;-79
2024/04/09 01:20:48;;;;;;;9.68;4.03;;;16.70;92.10;;;;;;5311910;27;20020;-82
2024/04/09 01:23:13;;;;;;;10.88;4.32;;;16.60;92.10;;;;;;5312144;26;19998;-80
2024/04/09 01:25:39;;;;;;;11.98;4.38;;;16.60;92.10;;;;;;5312383;27;19994;-79
2024/04/09 01:28:05;;;;;;;11.50;4.45;;;16.60;92.10;;;;;;5313471;27;20009;-79
2024/04/09 01:30:32;;;;;;;13.13;4.60;;;16.60;92.20;;;;;;5312187;27;20446;-78
2024/04/09 01:32:57;;;;;;;12.85;4.35;;;16.70;92.30;;;;;;5311840;26;20009;-79
2024/04/09 01:35:23;;;;;;;9.55;4.15;;;16.60;92.10;;;;;;5311991;27;20350;-80
2024/04/09 01:37:49;;;;;;;9.70;4.20;;;16.50;92.10;;;;;;5282142;27;19998;-78
2024/04/09 01:40:15;;;;;;;13.13;4.30;;;16.60;92.20;;;;;;5311976;27;20006;-79
2024/04/09 01:42:41;;;;;;;14.68;4.32;;;16.60;92.40;;;;;;5312843;27;20010;-79
2024/04/09 01:45:07;;;;;;;10.25;4.55;;;16.60;92.10;;;;;;5312103;26;20071;-78
2024/04/09 01:47:36;;;;;;;10.43;4.30;;;16.50;92.10;;;;;;5312489;27;20013;-79
2024/04/09 01:50:03;;;;;;;11.15;4.20;;;16.60;92.10;;;;;;5280738;27;20067;-78
2024/04/09 01:52:31;;;;;;;8.27;3.88;;;16.60;92.10;;;;;;5281979;27;20009;-78
2024/04/09 01:54:57;;;;;;;10.80;4.15;;;16.60;92.10;;;;;;5311991;26;20470;-79
2024/04/09 01:57:22;;;;;;;7.78;3.97;;;16.60;92.10;;;;;;5281958;27;20017;-79
2024/04/09 01:59:51;;;;;;;11.25;4.80;;;16.60;92.10;;;;;;5311356;27;20591;-80
2024/04/09 02:02:16;;;;;;;7.53;3.80;;;16.60;92.10;;;;;;5281493;27;20009;-80
2024/04/09 02:04:42;;;;;;;8.25;4.15;;;16.60;92.10;;;;;;5281631;27;20002;-79
2024/04/09 02:07:08;;;;;;;8.63;4.03;;;16.60;92.10;;;;;;5312253;27;20026;-79
2024/04/09 02:09:33;;;;;;;10.50;4.10;;;16.50;92.20;;;;;;5283212;27;19994;-79
2024/04/09 02:11:59;;;;;;;9.20;3.75;;;16.60;92.20;;;;;;5281595;27;20001;-82
2024/04/09 02:14:25;;;;;;;8.93;4.07;;;16.60;92.10;;;;;;5281602;27;20474;-80
2024/04/09 02:16:50;;;;;;;11.30;4.03;;;16.60;92.10;;;;;;5311820;27;20006;-79
2024/04/09 02:19:16;;;;;;;11.80;4.25;;;16.60;92.10;;;;;;5312337;27;20014;-80
2024/04/09 02:21:42;;;;;;;9.05;4.22;;;16.60;92.00;;;;;;5311765;27;20002;-79
2024/04/09 02:24:07;;;;;;;9.02;3.95;;;16.60;92.00;;;;;;5311564;26;20008;-78
2024/04/09 02:26:33;;;;;;;7.45;3.72;;;16.50;92.30;;;;;;5312146;27;20008;-79
2024/04/09 02:28:59;;;;;;;8.02;4.07;;;16.70;92.20;;;;;;5282653;27;20005;-79
2024/04/09 02:31:25;;;;;;;8.50;4.03;;;16.60;92.10;;;;;;5281705;27;19994;-79
2024/04/09 02:33:53;;;;;;;7.80;3.95;;;16.60;92.10;;;;;;5281380;27;20037;-79
2024/04/09 02:36:19;;;;;;;7.80;3.60;;;16.60;92.00;;;;;;5311918;27;20005;-79
2024/04/09 02:38:45;;;;;;;7.75;3.58;;;16.60;91.90;;;;;;5282172;27;20002;-78
2024/04/09 02:41:14;;;;;;;8.90;3.90;;;16.70;91.80;;;;;;5281189;27;20533;-82
2024/04/09 02:43:40;;;;;;;9.38;4.22;;;16.60;91.80;;;;;;5312720;26;20447;-79
2024/04/09 02:46:05;;;;;;;8.13;3.75;;;16.70;91.80;;;;;;5311172;27;20004;-81
2024/04/09 02:48:31;;;;;;;8.80;4.05;;;16.70;91.80;;;;;;5311270;27;19997;-79
2024/04/09 02:50:59;;;;;;;9.02;4.30;;;16.60;91.80;;;;;;5281271;27;20013;-80
2024/04/09 02:53:25;;;;;;;8.10;4.20;;;16.60;91.80;;;;;;5280416;27;19998;-79
2024/04/09 02:56:05;;;;;;;8.45;3.60;;;16.60;91.70;;;;;;5311181;27;19998;-80
2024/04/09 02:58:32;;;;;;;8.03;3.30;;;16.60;91.60;;;;;;5282033;27;20041;-81
2024/04/09 03:01:07;;;;;;;9.45;3.83;;;16.60;91.50;;;;;;5281097;27;20221;-79
2024/04/09 03:03:33;;;;;;;9.32;4.03;;;16.60;91.40;;;;;;5313029;26;20042;-80
2024/04/09 03:06:07;;;;;;;8.35;4.13;;;16.60;91.50;;;;;;5313247;27;20351;-81
2024/04/09 03:08:33;;;;;;;9.15;3.80;;;16.60;91.50;;;;;;5280685;27;19997;-79
2024/04/09 03:10:58;;;;;;;12.50;4.50;;;16.60;91.60;;;;;;5311072;27;20030;-79
2024/04/09 03:13:24;;;;;;;10.90;3.72;;;16.60;91.60;;;;;;5281770;27;20001;-81
2024/04/09 03:15:49;;;;;;;10.50;3.42;;;16.60;91.60;;;;;;5281486;27;20016;-81
2024/04/09 03:18:17;;;;;;;7.70;3.17;;;16.60;91.60;;;;;;5312790;27;20001;-80
2024/04/09 03:20:43;;;;;;;7.65;4.05;;;16.60;91.40;;;;;;5311814;27;20918;-80
2024/04/09 03:23:08;;;;;;;9.30;3.80;;;16.60;91.40;;;;;;5305203;27;20008;-80
2024/04/09 03:25:34;;;;;;;10.63;3.97;;;16.60;91.40;;;;;;5299419;26;19997;-80
2024/04/09 03:28:02;;;;;;;10.38;4.10;;;16.60;91.70;;;;;;5317340;27;19997;-83
2024/04/09 03:30:28;;;;;;;8.88;3.70;;;16.60;91.60;;;;;;5284991;27;20008;-79
2024/04/09 03:32:56;;;;;;;10.70;3.80;;;16.60;91.40;;;;;;5312620;27;19997;-80
2024/04/09 03:35:22;;;;;;;10.52;3.90;;;16.40;91.30;;;;;;5284725;27;20037;-81
2024/04/09 03:37:47;;;;;;;9.88;3.53;;;16.60;91.40;;;;;;5312540;27;20807;-83
2024/04/09 03:40:13;;;;;;;10.77;3.70;;;16.60;91.40;;;;;;5286567;27;19997;-81
2024/04/09 03:42:39;;;;;;;11.93;3.50;;;16.60;91.50;;;;;;5317897;27;20026;-80
2024/04/09 03:45:08;;;;;;;9.50;3.92;;;16.60;91.50;;;;;;5314047;27;19998;-80
2024/04/09 03:47:34;;;;;;;10.85;3.65;;;16.60;91.50;;;;;;5315061;27;19998;-80
2024/04/09 03:50:00;;;;;;;9.73;3.72;;;16.50;91.40;;;;;;5284744;27;20002;-79
2024/04/09 03:52:26;;;;;;;9.48;3.28;;;16.60;91.50;;;;;;5310677;27;20525;-81
2024/04/09 03:54:54;;;;;;;8.35;3.55;;;16.60;91.60;;;;;;5309812;27;20053;-79
2024/04/09 03:57:20;;;;;;;9.40;4.03;;;16.60;91.60;;;;;;5310791;27;20013;-79
2024/04/09 03:59:45;;;;;;;9.18;3.20;;;16.60;91.60;;;;;;5280518;27;19997;-80
2024/04/09 04:02:11;;;;;;;11.32;3.70;;;16.60;91.40;;;;;;5309537;27;20350;-78
2024/04/09 04:04:37;;;;;;;10.77;3.55;;;16.60;91.60;;;;;;5307723;27;20327;-77
2024/04/09 04:07:03;;;;;;;10.05;3.83;;;16.50;91.60;;;;;;5307398;27;20356;-81
2024/04/09 04:09:29;;;;;;;10.75;3.55;;;16.70;91.40;;;;;;5278931;27;20007;-79
2024/04/09 04:11:54;;;;;;;13.57;3.95;;;16.50;91.30;;;;;;5277694;27;20419;-79
2024/04/09 04:14:20;;;;;;;9.02;3.10;;;16.60;91.30;;;;;;5309469;27;20108;-80
2024/04/09 04:16:46;;;;;;;10.45;3.42;;;16.60;91.30;;;;;;5279849;27;20071;-76
2024/04/09 04:19:13;;;;;;;11.93;3.75;;;16.60;91.30;;;;;;5280218;27;19998;-78
2024/04/09 04:21:39;;;;;;;15.68;4.43;;;16.60;91.30;;;;;;5314093;27;20002;-81
2024/04/09 04:24:06;;;;;;;12.43;3.55;;;16.60;91.30;;;;;;5283051;27;20342;-79
2024/04/09 04:26:31;;;;;;;11.52;3.13;;;16.60;91.50;;;;;;5282528;27;20025;-80
2024/04/09 04:28:59;;;;;;;12.93;4.00;;;16.50;91.20;;;;;;5312344;27;20509;-80
2024/04/09 04:31:29;;;;;;;15.95;3.80;;;16.60;91.30;;;;;;5282760;27;20328;-80
2024/04/09 04:33:54;;;;;;;18.98;4.18;;;16.60;91.60;;;;;;5282703;27;20009;-81
2024/04/09 04:36:20;;;;;;;18.63;3.97;;;16.60;91.40;;;;;;5310958;27;20409;-78
2024/04/09 04:38:47;;;;;;;15.70;4.18;;;16.60;91.60;;;;;;5310543;27;20010;-80
2024/04/09 04:41:13;;;;;;;12.00;3.85;;;16.50;91.30;;;;;;5281907;27;20009;-78
2024/04/09 04:43:39;;;;;;;12.05;3.72;;;16.60;91.30;;;;;;5279256;27;20002;-79
2024/04/09 04:46:06;;;;;;;13.23;3.47;;;16.60;91.30;;;;;;5310436;27;20009;-79
2024/04/09 04:48:32;;;;;;;14.45;4.28;;;16.60;91.30;;;;;;5309816;27;20076;-78
2024/04/09 04:50:57;;;;;;;13.60;4.13;;;16.60;91.30;;;;;;5310723;27;19998;-79
2024/04/09 04:53:23;;;;;;;11.70;3.70;;;16.50;91.30;;;;;;5311430;27;20014;-80
2024/04/09 04:55:50;;;;;;;11.02;3.42;;;16.50;91.40;;;;;;5280481;27;20053;-80
2024/04/09 04:58:16;;;;;;;12.77;3.70;;;16.50;91.40;;;;;;5310210;27;20010;-78
2024/04/09 05:00:45;;;;;;;13.82;4.25;;;16.60;91.40;;;;;;5309666;27;20008;-79
2024/04/09 05:03:11;;;;;;;9.32;3.25;;;16.50;91.40;;;;;;5282309;27;20005;-77
2024/04/09 05:05:37;;;;;;;11.73;3.70;;;16.50;91.40;;;;;;5308752;27;20002;-81
2024/04/09 05:08:04;;;;;;;10.27;3.55;;;16.50;91.50;;;;;;5309615;27;20021;-79
2024/04/09 05:10:30;;;;;;;12.90;3.60;;;16.50;91.50;;;;;;5309525;27;20013;-77
2024/04/09 05:12:55;;;;;;;9.60;3.40;;;16.50;91.50;;;;;;5309454;27;19997;-78
2024/04/09 05:15:22;;;;;;;15.10;4.15;;;16.50;91.50;;;;;;5280625;27;20002;-79
2024/04/09 05:17:49;;;;;;;9.55;3.30;;;16.50;91.50;;;;;;5309910;27;20012;-78
2024/04/09 05:20:16;;;;;;;10.70;3.55;;;16.50;91.50;;;;;;5279287;27;19994;-80
2024/04/09 05:22:41;;;;;;;9.80;3.47;;;16.60;91.60;;;;;;5279819;27;19998;-77
2024/04/09 05:25:11;;;;;;;8.57;3.40;;;16.50;91.60;;;;;;5311840;27;20074;-80
2024/04/09 05:27:37;;;;;;;8.52;3.58;;;16.50;91.60;;;;;;5283897;27;20471;-82
2024/04/09 05:30:03;;;;;;;9.98;3.30;;;16.50;91.60;;;;;;5310920;27;19997;-76
2024/04/09 05:32:29;;;;;;;9.90;3.20;;;16.50;91.60;;;;;;5312219;27;20002;-80
2024/04/09 05:34:55;;;;;;;10.55;3.28;;;16.50;91.60;;;;;;5313605;27;20081;-78
2024/04/09 05:37:20;;;;;;;10.98;3.38;;;16.60;91.70;;;;;;5313189;27;20513;-80
2024/04/09 05:39:47;;;;;;;7.47;2.90;;;16.60;91.80;;;;;;5312369;27;20008;-78
2024/04/09 05:42:16;;;;;;;9.63;3.33;;;16.60;91.70;;;;;;5284743;27;20009;-80
2024/04/09 05:44:42;;;;;;;9.85;3.30;;;16.60;91.70;;;;;;5315239;27;20075;-79
2024/04/09 05:47:08;;;;;;;10.20;3.63;;;16.60;91.70;;;;;;5313133;27;20010;-78
2024/04/09 05:49:34;;;;;;;11.60;3.70;;;16.60;91.60;;;;;;5281084;27;20005;-79
2024/04/09 05:52:00;;;;;;;12.77;3.40;;;16.60;91.60;;;;;;5282448;27;20026;-78
2024/04/09 05:54:25;;;;;;;11.68;3.78;;;16.50;91.60;;;;;;5313479;27;20350;-78
2024/04/09 05:56:51;;;;;;;9.73;3.55;;;16.50;91.80;;;;;;5285469;27;20008;-78
2024/04/09 05:59:17;;;;;;;10.10;3.30;;;16.60;91.50;;;;;;5282294;27;20002;-79
2024/04/09 06:01:43;;;;;;;11.68;3.60;;;16.60;91.50;;;;;;5313322;27;19997;-80
2024/04/09 06:04:09;;;;;;;10.00;3.17;;;16.60;91.60;;;;;;5283951;27;20004;-80
2024/04/09 06:06:35;;;;;;;9.43;3.38;;;16.50;91.50;;;;;;5312815;27;20002;-78
2024/04/09 06:09:01;;;;;;;8.77;3.20;;;16.60;91.60;;;;;;5262152;27;20359;-79
2024/04/09 06:11:27;;;;;;;13.95;3.50;;;16.60;91.60;;;;;;5279728;27;20046;-80
2024/04/09 06:13:53;;;;;;;16.83;3.38;;;16.60;91.60;;;;;;5278134;27;20018;-78
2024/04/09 06:16:19;;;;;;;11.23;3.22;;;16.50;91.50;;;;;;5277477;27;20010;-79
2024/04/09 06:18:45;;;;;;;13.13;3.63;;;16.50;91.50;;;;;;5248048;27;20051;-78
2024/04/09 06:21:11;;;;;;;8.75;2.97;;;16.60;91.60;;;;;;5248891;27;20010;-79
2024/04/09 06:23:36;;;;;;;10.27;3.00;;;16.60;91.60;;;;;;5277146;27;20336;-79
2024/04/09 06:26:02;;;;;;;12.35;3.25;;;16.60;91.60;;;;;;5246957;27;20006;-81
2024/04/09 06:28:28;;;;;;;12.45;3.35;;;16.60;91.60;;;;;;5277629;27;20010;-80
2024/04/09 06:30:54;;;;;;;13.05;3.47;;;16.60;91.60;;;;;;5279186;27;20002;-81
2024/04/09 06:33:20;;;;;;;15.93;3.78;;;16.60;91.60;;;;;;5280260;27;20002;-80
2024/04/09 06:35:46;;;;;;;10.60;3.20;;;16.60;91.60;;;;;;5277036;27;20002;-78
2024/04/09 06:38:12;;;;;;;8.90;2.85;;;16.60;91.60;;;;;;5248384;27;19999;-78
2024/04/09 06:40:37;;;;;;;13.13;3.50;;;16.60;91.60;;;;;;5277250;27;20545;-78
2024/04/09 06:43:03;;;;;;;12.57;2.97;;;16.60;91.60;;;;;;5247668;27;20002;-78
2024/04/09 06:45:29;;;;;;;14.60;3.60;;;16.60;91.60;;;;;;5247343;27;20011;-78
2024/04/09 06:47:55;;;;;;;20.40;3.88;;;16.60;91.70;;;;;;5277226;27;20009;-79
2024/04/09 06:50:21;;;;;;;18.10;3.88;;;16.60;91.70;;;;;;5247130;27;20034;-78
2024/04/09 06:52:46;;;;;;;17.95;3.53;;;16.60;91.70;;;;;;5247713;27;20042;-79
2024/04/09 06:55:12;;;;;;;16.15;3.33;;;16.60;91.70;;;;;;5277362;27;20010;-79
2024/04/09 06:57:38;;;;;;;15.60;3.85;;;16.60;91.70;;;;;;5277322;27;20009;-78
2024/04/09 07:00:06;;;;;;;12.85;3.90;;;16.60;91.70;;;;;;5247662;27;20013;-78
2024/04/09 07:02:33;;;;;;;17.02;3.95;;;16.60;91.70;;;;;;5246927;27;20448;-77
2024/04/09 07:04:59;;;;;;;10.90;3.47;;;16.70;91.70;;;;;;5276916;27;20002;-78
2024/04/09 07:07:24;;;;;;;12.85;3.25;;;16.60;91.70;;;;;;5276397;27;20021;-79
2024/04/09 07:09:50;;;;;;;10.45;3.17;;;16.70;91.70;;;;;;5247185;27;19998;-78
2024/04/09 07:12:16;;;;;;;12.63;2.97;;;16.70;91.70;;;;;;5277034;27;20443;-78
2024/04/09 07:14:41;;;;;;;11.73;3.65;;;16.60;91.70;;;;;;5276614;27;19998;-79
2024/04/09 07:17:07;;;;;;;16.67;3.67;;;16.50;91.70;;;;;;5247141;27;20039;-78
2024/04/09 07:19:33;;;;;;;16.42;3.50;;;16.60;91.70;;;;;;5277153;27;20002;-78
2024/04/09 07:21:58;;;;;;;21.77;3.72;;;16.70;91.70;;;;;;5276541;27;20068;-79
2024/04/09 07:24:24;;;;;;;19.05;3.67;;;16.60;91.90;;;;;;5277182;27;20418;-78
2024/04/09 07:26:49;;;;;;;13.45;3.08;;;16.70;91.70;;;;;;5247082;27;20006;-79
2024/04/09 07:29:15;;;;;;;14.57;3.22;;;16.60;91.70;;;;;;5276673;27;20014;-79
2024/04/09 07:31:41;;;;;;;15.93;3.20;;;16.70;91.70;;;;;;5276659;27;20010;-79
2024/04/09 07:34:06;;;;;;;15.13;3.53;;;16.70;91.70;;;;;;5276863;27;20010;-78
2024/04/09 07:36:33;;;;;;;11.95;3.35;;;16.70;91.70;;;;;;5246652;27;20002;-78
2024/04/09 07:38:59;;;;;;;11.27;3.00;;;16.70;91.70;;;;;;5247177;27;20009;-78
2024/04/09 07:41:25;;;;;;;12.43;3.00;;;16.60;91.70;;;;;;5276012;27;20335;-79
2024/04/09 07:43:51;;;;;;;9.10;2.72;;;16.60;91.70;;;;;;5277851;27;20010;-79
2024/04/09 07:46:18;;;;;;;8.40;2.88;;;16.70;91.70;;;;;;5245507;27;20008;-79
2024/04/09 07:48:44;;;;;;;9.38;3.28;;;16.60;91.70;;;;;;5276021;27;20014;-79
2024/04/09 07:51:09;;;;;;;9.68;3.10;;;16.70;91.70;;;;;;5275879;27;20077;-79
2024/04/09 07:53:35;;;;;;;11.10;2.92;;;16.70;91.70;;;;;;5275561;27;20010;-80
2024/04/09 07:56:04;;;;;;;8.77;2.90;;;16.70;91.70;;;;;;5275505;27;19998;-78
2024/04/09 07:58:30;;;;;;;9.50;2.78;;;16.70;91.70;;;;;;5276103;27;20038;-79
2024/04/09 08:00:56;;;;;;;7.40;3.00;;;16.70;91.70;;;;;;5245906;27;19994;-80
2024/04/09 08:03:21;;;;;;;8.35;3.00;;;16.70;91.70;;;;;;5275850;27;20030;-78
2024/04/09 08:05:47;;;;;;;8.77;2.97;;;16.60;91.70;;;;;;5276878;27;20565;-78
2024/04/09 08:08:13;;;;;;;7.15;2.67;;;16.60;91.70;;;;;;5246843;27;20013;-78
2024/04/09 08:10:40;;;;;;;10.18;3.03;;;16.60;91.70;;;;;;5275816;27;20013;-79
2024/04/09 08:13:05;;;;;;;7.07;2.80;;;16.60;91.70;;;;;;5275540;27;20034;-77
2024/04/09 08:15:31;;;;;;;6.55;2.70;;;16.70;91.80;;;;;;5246687;27;20002;-78
2024/04/09 08:17:57;;;;;;;8.80;3.25;;;16.70;91.70;;;;;;5276990;27;20076;-80
2024/04/09 08:20:26;;;;;;;6.90;3.00;;;16.70;91.70;;;;;;5275246;27;19998;-80
2024/04/09 08:22:52;;;;;;;7.75;2.88;;;16.70;91.70;;;;;;5275305;27;20144;-81
2024/04/09 08:25:18;;;;;;;7.93;2.90;;;16.60;91.70;;;;;;5278935;27;20010;-77
2024/04/09 08:27:45;;;;;;;8.45;2.95;;;16.70;91.70;;;;;;5309867;27;20042;-79
2024/04/09 08:30:16;;;;;;;8.88;3.55;;;16.50;91.70;;;;;;5309427;27;20006;-78
2024/04/09 08:32:42;;;;;;;6.28;2.50;;;16.60;91.80;;;;;;5279245;27;20001;-80
2024/04/09 08:35:08;;;;;;;6.90;2.90;;;16.60;91.80;;;;;;5309653;26;20016;-78
2024/04/09 08:37:36;;;;;;;8.77;3.03;;;16.60;91.80;;;;;;5280781;27;19998;-78
2024/04/09 08:40:03;;;;;;;5.93;2.88;;;16.60;91.70;;;;;;5279358;27;19998;-79
2024/04/09 08:42:35;;;;;;;9.63;3.28;;;16.60;91.80;;;;;;5309856;27;20005;-78
2024/04/09 08:45:02;;;;;;;7.15;2.88;;;16.60;91.80;;;;;;5279326;27;20001;-78
2024/04/09 08:47:28;;;;;;;8.32;3.50;;;16.60;91.80;;;;;;5278577;27;20042;-78
2024/04/09 08:49:54;;;;;;;7.65;2.90;;;16.60;91.80;;;;;;5278924;27;20009;-78
2024/04/09 08:52:22;;;;;;;6.28;2.67;;;16.60;91.80;;;;;;5309950;27;19997;-78
2024/04/09 08:54:48;;;;;;;7.15;3.00;;;16.60;91.80;;;;;;5308558;26;20075;-79
2024/04/09 08:57:14;;;;;;;7.93;3.28;;;16.60;91.80;;;;;;5309299;27;20004;-79
2024/04/09 08:59:40;;;;;;;7.53;3.47;;;16.60;91.80;;;;;;5281857;27;20001;-78
2024/04/09 09:02:14;;;;;;;6.18;2.85;;;16.60;91.80;;;;;;5312477;27;20079;-77
2024/04/09 09:04:44;;;;;;;7.15;2.80;;;16.60;91.80;;;;;;5282059;27;20001;-79
2024/04/09 09:07:13;;;;;;;7.88;3.05;;;16.60;91.80;;;;;;5281986;27;20072;-79
2024/04/09 09:09:39;;;;;;;6.45;3.00;;;16.70;91.80;;;;;;5281889;27;20009;-78
2024/04/09 09:12:05;;;;;;;7.47;2.70;;;16.70;91.80;;;;;;5312556;27;20000;-80
2024/04/09 09:14:32;;;;;;;8.02;2.80;;;16.60;91.80;;;;;;5312231;26;19993;-80
2024/04/09 09:17:11;;;;;;;6.43;3.28;;;16.50;92.00;;;;;;5312562;27;20446;-78
2024/04/09 09:19:37;;;;;;;7.43;3.08;;;16.60;91.80;;;;;;5312342;27;20013;-78
2024/04/09 09:22:12;;;;;;;5.43;2.80;;;16.60;91.80;;;;;;5312226;27;20887;-78
2024/04/09 09:24:38;;;;;;;8.15;3.30;;;16.60;91.80;;;;;;5315391;26;20466;-78
2024/04/09 09:27:05;;;;;;;6.47;2.65;;;16.60;91.80;;;;;;5285653;27;20012;-81
2024/04/09 09:29:32;;;;;;;5.50;2.67;;;16.60;91.80;;;;;;5315598;27;20772;-81
2024/04/09 09:32:02;;;;;;;5.57;2.60;;;16.60;91.80;;;;;;5311889;27;20075;-77
2024/04/09 09:34:41;;;;;;;5.75;2.60;;;16.60;91.80;;;;;;5312597;26;20013;-77
2024/04/09 09:37:08;;;;;;;5.45;2.90;;;16.60;91.80;;;;;;5283316;27;20009;-80
2024/04/09 09:39:38;;;;;;;5.32;2.70;;;16.60;91.80;;;;;;5314059;27;19998;-77
2024/04/09 09:42:05;;;;;;;8.27;2.87;;;16.60;91.90;;;;;;5312200;27;20038;-80
2024/04/09 09:44:36;;;;;;;5.90;2.40;;;16.60;92.10;;;;;;5281586;27;20016;-79
2024/04/09 09:47:03;;;;;;;8.63;3.08;;;16.60;91.90;;;;;;5282763;27;20013;-78
2024/04/09 09:49:29;;;;;;;5.13;2.38;;;16.60;91.80;;;;;;5281151;27;20030;-78
2024/04/09 09:51:58;;;;;;;5.68;2.35;;;16.50;91.80;;;;;;5281526;27;20009;-79
2024/04/09 09:54:25;;;;;;;5.63;2.38;;;16.60;91.80;;;;;;5281547;27;20010;-79
2024/04/09 09:57:08;;;;;;;4.93;2.15;;;16.60;91.80;;;;;;5281844;27;19998;-79
2024/04/09 09:59:46;;;;;;;4.53;2.25;;;16.60;91.80;;;;;;5281353;27;19998;-78
2024/04/09 10:02:16;;;;;;;4.53;2.38;;;16.70;91.80;;;;;;5312003;27;20006;-79
2024/04/09 10:04:43;;;;;;;8.02;2.60;;;16.70;91.80;;;;;;5311108;26;20409;-79
2024/04/09 10:07:11;;;;;;;5.43;2.50;;;16.60;91.80;;;;;;5312615;27;20075;-77
2024/04/09 10:09:37;;;;;;;6.15;2.40;;;16.70;92.00;;;;;;5280326;27;20028;-78
2024/04/09 10:12:02;;;;;;;5.57;2.50;;;16.70;91.70;;;;;;5311372;27;20620;-80
2024/04/09 10:14:37;;;;;;;6.22;2.40;;;16.70;91.70;;;;;;5281651;27;19997;-77
2024/04/09 10:17:11;;;;;;;5.72;2.60;;;16.80;91.70;;;;;;5311192;27;20005;-78
2024/04/09 10:19:37;;;;;;;5.18;2.20;;;16.70;91.70;;;;;;5281277;27;20096;-79
2024/04/09 10:22:03;;;;;;;5.75;2.58;;;16.70;91.70;;;;;;5281046;27;20010;-78
2024/04/09 10:24:37;;;;;;;5.90;2.53;;;16.70;91.60;;;;;;5280906;27;20002;-78
2024/04/09 10:27:04;;;;;;;3.97;2.22;;;16.60;91.70;;;;;;5281175;27;20072;-78
2024/04/09 10:29:30;;;;;;;4.90;2.58;;;16.70;91.60;;;;;;5311244;27;20007;-77
2024/04/09 10:31:56;;;;;;;3.95;2.20;;;16.70;91.60;;;;;;5281416;27;20029;-79
2024/04/09 10:34:26;;;;;;;3.95;2.05;;;16.60;91.50;;;;;;5310890;26;19998;-79
2024/04/09 10:36:55;;;;;;;5.57;2.20;;;16.70;91.60;;;;;;5311350;27;20106;-78
2024/04/09 10:39:24;;;;;;;4.38;2.30;;;16.50;91.50;;;;;;5280934;27;19998;-79
2024/04/09 10:41:56;;;;;;;4.65;2.00;;;16.70;91.50;;;;;;5280663;27;20001;-78
2024/04/09 10:44:26;;;;;;;5.40;2.35;;;16.70;91.50;;;;;;5313927;26;20001;-79
2024/04/09 10:46:52;;;;;;;4.93;2.10;;;16.70;91.50;;;;;;5282747;27;20012;-78
2024/04/09 10:49:18;;;;;;;4.32;2.42;;;16.70;91.50;;;;;;5280755;27;20009;-77
2024/04/09 10:51:48;;;;;;;4.85;1.98;;;16.60;91.40;;;;;;5310722;27;19997;-81
2024/04/09 10:54:14;;;;;;;4.55;2.20;;;16.70;91.70;;;;;;5311132;26;19997;-78
2024/04/09 10:56:39;;;;;;;3.72;2.22;;;16.70;91.40;;;;;;5282369;27;20029;-79
2024/04/09 10:59:21;;;;;;;4.80;2.20;;;16.70;91.40;;;;;;5310993;27;20406;-77
2024/04/09 11:01:47;;;;;;;3.83;2.03;;;16.70;91.40;;;;;;5280249;27;20002;-78
2024/04/09 11:04:13;;;;;;;3.70;2.10;;;16.70;91.40;;;;;;5280493;27;20005;-78
2024/04/09 11:06:41;;;;;;;5.18;2.67;;;16.50;91.30;;;;;;5281263;27;20009;-79
2024/04/09 11:09:08;;;;;;;5.18;2.17;;;16.70;91.40;;;;;;5281741;27;20002;-80
2024/04/09 11:11:35;;;;;;;4.95;2.55;;;16.60;91.30;;;;;;5310946;27;19994;-80
2024/04/09 11:14:03;;;;;;;4.60;2.70;;;16.60;91.30;;;;;;5310072;26;19997;-78
2024/04/09 11:16:28;;;;;;;4.32;2.30;;;16.60;91.30;;;;;;5310587;27;19998;-80
2024/04/09 11:19:01;;;;;;;4.70;2.40;;;16.60;91.30;;;;;;5281672;27;19998;-78
2024/04/09 11:21:28;;;;;;;3.78;2.22;;;16.70;91.40;;;;;;5282969;27;20630;-79
2024/04/09 11:23:54;;;;;;;3.80;2.20;;;16.60;91.20;;;;;;5309985;26;20010;-80
2024/04/09 11:26:20;;;;;;;5.03;2.40;;;16.70;91.20;;;;;;5280418;27;20001;-77
2024/04/09 11:28:50;;;;;;;4.28;2.13;;;16.60;91.30;;;;;;5310036;27;20009;-79
2024/04/09 11:31:22;;;;;;;3.70;2.05;;;16.60;91.20;;;;;;5310010;27;20010;-78
2024/04/09 11:33:49;;;;;;;4.53;2.38;;;16.60;91.20;;;;;;5310388;26;20011;-80
2024/04/09 11:36:14;;;;;;;4.60;2.10;;;16.60;91.30;;;;;;5279538;27;20005;-78
2024/04/09 11:38:43;;;;;;;4.63;2.50;;;16.70;91.10;;;;;;5280165;27;20013;-78
2024/04/09 11:41:09;;;;;;;4.28;2.25;;;16.60;91.20;;;;;;5311006;27;20007;-80
2024/04/09 11:43:35;;;;;;;3.92;2.00;;;16.70;91.10;;;;;;5311037;26;20346;-78
2024/04/09 11:46:02;;;;;;;4.53;2.00;;;16.60;91.10;;;;;;5310448;27;20366;-79
2024/04/09 11:48:28;;;;;;;3.33;1.80;;;16.60;91.10;;;;;;5310505;27;19998;-81
2024/04/09 11:50:54;;;;;;;3.58;2.20;;;16.70;91.10;;;;;;5309838;27;20002;-79
2024/04/09 11:53:20;;;;;;;3.25;1.98;;;16.50;91.30;;;;;;5310845;26;20005;-79
2024/04/09 11:55:46;;;;;;;4.00;2.15;;;16.60;91.00;;;;;;5279942;27;20002;-79
2024/04/09 11:58:12;;;;;;;3.47;1.85;;;16.70;91.00;;;;;;5308800;27;20013;-77
2024/04/09 12:00:38;;;;;;;4.00;2.10;;;16.60;91.00;;;;;;5278909;27;20015;-78
2024/04/09 12:03:05;;;;;;;5.13;2.10;;;16.60;90.90;;;;;;5279451;26;20442;-78
2024/04/09 12:05:31;;;;;;;3.85;1.90;;;16.60;90.90;;;;;;5311497;27;20334;-78
2024/04/09 12:07:58;;;;;;;3.58;1.80;;;16.60;90.90;;;;;;5279359;27;19997;-79
2024/04/09 12:10:24;;;;;;;3.83;2.03;;;16.60;90.80;;;;;;5309317;27;19998;-78
2024/04/09 12:12:51;;;;;;;4.57;2.05;;;16.60;90.90;;;;;;5309403;27;20017;-78
2024/04/09 12:15:18;;;;;;;3.33;1.73;;;16.60;90.80;;;;;;5309652;26;20402;-78
2024/04/09 12:17:44;;;;;;;3.65;1.65;;;16.60;90.70;;;;;;5309888;27;20459;-81
2024/04/09 12:20:09;;;;;;;4.20;1.85;;;16.50;90.70;;;;;;5308950;27;20033;-79
2024/04/09 12:22:35;;;;;;;4.05;1.73;;;16.60;90.50;;;;;;5308919;27;19998;-80
2024/04/09 12:25:00;;;;;;;3.65;2.08;;;16.60;90.60;;;;;;5278830;27;20005;-79
2024/04/09 12:27:26;;;;;;;3.63;1.70;;;16.60;90.60;;;;;;5278665;27;20044;-79
2024/04/09 12:29:55;;;;;;;3.58;1.88;;;16.60;90.30;;;;;;5309104;27;20006;-78
2024/04/09 12:32:21;;;;;;;4.30;1.75;;;16.60;90.40;;;;;;5308411;27;20002;-78
2024/04/09 12:34:47;;;;;;;3.88;1.85;;;16.50;90.40;;;;;;5309061;26;20012;-78
2024/04/09 12:37:13;;;;;;;4.70;1.77;;;16.60;90.60;;;;;;5309561;27;20473;-78
2024/04/09 12:39:38;;;;;;;3.42;1.60;;;16.60;90.50;;;;;;5308253;27;19997;-79
2024/04/09 12:42:04;;;;;;;3.88;1.73;;;16.60;90.40;;;;;;5309085;27;20455;-78
2024/04/09 12:44:30;;;;;;;3.58;1.73;;;16.60;90.40;;;;;;5309166;26;19997;-79
2024/04/09 12:46:55;;;;;;;3.90;1.90;;;16.60;90.40;;;;;;5279450;27;20001;-79
2024/04/09 12:49:30;;;;;;;4.30;1.70;;;16.60;90.20;;;;;;5309682;27;20002;-80
2024/04/09 12:51:56;;;;;;;4.10;1.67;;;16.60;90.20;;;;;;5309959;27;19997;-78
2024/04/09 12:54:23;;;;;;;4.88;1.80;;;16.50;90.20;;;;;;5308273;26;20416;-78
2024/04/09 12:56:49;;;;;;;4.30;1.90;;;16.60;90.00;;;;;;5278579;27;20002;-79